sensor_id;sensor_type;location;lat;lon;timestamp;P1;durP1;ratioP1;P2;durP2;ratioP2
1262;SDS011;62267;50.112;8.704;2023-08-20T00:01:09;9.93;;;9.07;;
1262;SDS011;62267;50.112;8.704;2023-08-20T00:03:40;11.67;;;9.00;;
1262;SDS011;62267;50.112;8.704;2023-08-20T00:06:10;9.83;;;8.90;;
1262;SDS011;62267;50.112;8.704;2023-08-20T00:08:37;10.70;;;9.77;;
1262;SDS011;62267;50.112;8.704;2023-08-20T00:11:05;9.30;;;8.50;;
1262;SDS011;62267;50.112;8.704;2023-08-20T00:13:33;9.43;;;8.57;;
1262;SDS011;62267;50.112;8.704;2023-08-20T00:16:00;11.40;;;9.90;;
1262;SDS011;62267;50.112;8.704;2023-08-20T00:18:28;9.07;;;8.30;;
1262;SDS011;62267;50.112;8.704;2023-08-20T00:20:56;10.77;;;9.27;;
1262;SDS011;62267;50.112;8.704;2023-08-20T00:23:23;11.27;;;9.50;;
1262;SDS011;62267;50.112;8.704;2023-08-20T00:25:51;11.53;;;10.50;;
1262;SDS011;62267;50.112;8.704;2023-08-20T00:28:21;9.47;;;8.57;;
1262;SDS011;62267;50.112;8.704;2023-08-20T00:30:48;11.43;;;8.43;;
1262;SDS011;62267;50.112;8.704;2023-08-20T00:33:17;10.57;;;9.50;;
1262;SDS011;62267;50.112;8.704;2023-08-20T00:35:44;11.10;;;9.70;;
1262;SDS011;62267;50.112;8.704;2023-08-20T00:38:13;10.43;;;8.70;;
1262;SDS011;62267;50.112;8.704;2023-08-20T00:40:40;9.90;;;8.50;;
1262;SDS011;62267;50.112;8.704;2023-08-20T00:43:07;12.63;;;10.47;;
1262;SDS011;62267;50.112;8.704;2023-08-20T00:45:35;10.20;;;9.07;;
1262;SDS011;62267;50.112;8.704;2023-08-20T00:48:04;10.73;;;9.57;;
1262;SDS011;62267;50.112;8.704;2023-08-20T00:50:32;9.43;;;8.50;;
1262;SDS011;62267;50.112;8.704;2023-08-20T00:53:01;11.17;;;9.30;;
1262;SDS011;62267;50.112;8.704;2023-08-20T00:55:28;10.30;;;9.40;;
1262;SDS011;62267;50.112;8.704;2023-08-20T00:57:56;11.00;;;10.00;;
1262;SDS011;62267;50.112;8.704;2023-08-20T01:00:23;11.77;;;9.53;;
1262;SDS011;62267;50.112;8.704;2023-08-20T01:02:53;12.00;;;10.07;;
1262;SDS011;62267;50.112;8.704;2023-08-20T01:05:21;15.40;;;11.13;;
1262;SDS011;62267;50.112;8.704;2023-08-20T01:08:01;9.70;;;8.80;;
1262;SDS011;62267;50.112;8.704;2023-08-20T01:10:36;10.23;;;9.33;;
1262;SDS011;62267;50.112;8.704;2023-08-20T01:13:04;10.70;;;9.60;;
1262;SDS011;62267;50.112;8.704;2023-08-20T01:15:31;10.10;;;9.20;;
1262;SDS011;62267;50.112;8.704;2023-08-20T01:18:01;11.30;;;10.20;;
1262;SDS011;62267;50.112;8.704;2023-08-20T01:20:30;10.90;;;9.90;;
1262;SDS011;62267;50.112;8.704;2023-08-20T01:25:50;10.30;;;9.27;;
1262;SDS011;62267;50.112;8.704;2023-08-20T01:28:21;10.77;;;9.77;;
1262;SDS011;62267;50.112;8.704;2023-08-20T01:30:49;11.80;;;10.70;;
1262;SDS011;62267;50.112;8.704;2023-08-20T01:33:18;10.33;;;9.43;;
1262;SDS011;62267;50.112;8.704;2023-08-20T01:35:47;12.70;;;10.60;;
1262;SDS011;62267;50.112;8.704;2023-08-20T01:38:14;11.50;;;10.50;;
1262;SDS011;62267;50.112;8.704;2023-08-20T01:40:42;14.60;;;11.00;;
1262;SDS011;62267;50.112;8.704;2023-08-20T01:43:09;11.17;;;10.07;;
1262;SDS011;62267;50.112;8.704;2023-08-20T01:45:37;11.80;;;10.30;;
1262;SDS011;62267;50.112;8.704;2023-08-20T01:48:04;12.20;;;11.00;;
1262;SDS011;62267;50.112;8.704;2023-08-20T01:50:33;11.50;;;10.50;;
1262;SDS011;62267;50.112;8.704;2023-08-20T01:53:01;11.70;;;9.70;;
1262;SDS011;62267;50.112;8.704;2023-08-20T01:55:30;11.67;;;10.47;;
1262;SDS011;62267;50.112;8.704;2023-08-20T01:57:58;11.83;;;10.30;;
1262;SDS011;62267;50.112;8.704;2023-08-20T02:00:25;11.57;;;10.57;;
1262;SDS011;62267;50.112;8.704;2023-08-20T02:02:56;11.77;;;10.67;;
1262;SDS011;62267;50.112;8.704;2023-08-20T02:05:24;11.00;;;10.00;;
1262;SDS011;62267;50.112;8.704;2023-08-20T02:07:51;11.60;;;9.63;;
1262;SDS011;62267;50.112;8.704;2023-08-20T02:10:19;12.20;;;10.17;;
1262;SDS011;62267;50.112;8.704;2023-08-20T02:12:48;11.67;;;10.57;;
1262;SDS011;62267;50.112;8.704;2023-08-20T02:15:16;11.20;;;10.20;;
1262;SDS011;62267;50.112;8.704;2023-08-20T02:17:45;12.63;;;11.40;;
1262;SDS011;62267;50.112;8.704;2023-08-20T02:20:14;11.03;;;9.80;;
1262;SDS011;62267;50.112;8.704;2023-08-20T02:22:41;10.17;;;9.20;;
1262;SDS011;62267;50.112;8.704;2023-08-20T02:25:09;11.63;;;10.23;;
1262;SDS011;62267;50.112;8.704;2023-08-20T02:27:36;12.80;;;9.90;;
1262;SDS011;62267;50.112;8.704;2023-08-20T02:30:04;11.43;;;10.40;;
1262;SDS011;62267;50.112;8.704;2023-08-20T02:32:31;12.40;;;11.20;;
1262;SDS011;62267;50.112;8.704;2023-08-20T02:35:00;9.87;;;9.07;;
1262;SDS011;62267;50.112;8.704;2023-08-20T02:37:27;10.90;;;9.90;;
1262;SDS011;62267;50.112;8.704;2023-08-20T02:39:55;11.30;;;10.20;;
1262;SDS011;62267;50.112;8.704;2023-08-20T02:42:23;10.90;;;9.87;;
1262;SDS011;62267;50.112;8.704;2023-08-20T02:44:50;10.60;;;9.70;;
1262;SDS011;62267;50.112;8.704;2023-08-20T02:47:18;11.17;;;10.03;;
1262;SDS011;62267;50.112;8.704;2023-08-20T02:49:45;13.50;;;10.60;;
1262;SDS011;62267;50.112;8.704;2023-08-20T02:52:15;10.80;;;9.80;;
1262;SDS011;62267;50.112;8.704;2023-08-20T02:54:43;10.73;;;9.83;;
1262;SDS011;62267;50.112;8.704;2023-08-20T02:57:10;10.90;;;9.87;;
1262;SDS011;62267;50.112;8.704;2023-08-20T02:59:38;12.73;;;11.57;;
1262;SDS011;62267;50.112;8.704;2023-08-20T03:02:05;13.37;;;10.77;;
1262;SDS011;62267;50.112;8.704;2023-08-20T03:04:33;14.90;;;10.60;;
1262;SDS011;62267;50.112;8.704;2023-08-20T03:07:02;11.70;;;10.50;;
1262;SDS011;62267;50.112;8.704;2023-08-20T03:09:29;11.60;;;10.50;;
1262;SDS011;62267;50.112;8.704;2023-08-20T03:11:57;12.10;;;10.80;;
1262;SDS011;62267;50.112;8.704;2023-08-20T03:14:25;11.97;;;10.53;;
1262;SDS011;62267;50.112;8.704;2023-08-20T03:16:54;12.30;;;11.20;;
1262;SDS011;62267;50.112;8.704;2023-08-20T03:19:22;13.50;;;11.33;;
1262;SDS011;62267;50.112;8.704;2023-08-20T03:21:49;11.53;;;10.53;;
1262;SDS011;62267;50.112;8.704;2023-08-20T03:24:16;13.23;;;11.13;;
1262;SDS011;62267;50.112;8.704;2023-08-20T03:26:46;11.60;;;9.90;;
1262;SDS011;62267;50.112;8.704;2023-08-20T03:29:14;12.83;;;11.60;;
1262;SDS011;62267;50.112;8.704;2023-08-20T03:31:41;13.83;;;12.43;;
1262;SDS011;62267;50.112;8.704;2023-08-20T03:34:09;12.77;;;11.57;;
1262;SDS011;62267;50.112;8.704;2023-08-20T03:36:37;13.83;;;12.43;;
1262;SDS011;62267;50.112;8.704;2023-08-20T03:39:04;13.17;;;11.73;;
1262;SDS011;62267;50.112;8.704;2023-08-20T03:41:31;14.07;;;12.57;;
1262;SDS011;62267;50.112;8.704;2023-08-20T03:43:59;13.37;;;12.03;;
1262;SDS011;62267;50.112;8.704;2023-08-20T03:46:26;13.80;;;12.43;;
1262;SDS011;62267;50.112;8.704;2023-08-20T03:48:54;16.67;;;12.50;;
1262;SDS011;62267;50.112;8.704;2023-08-20T03:51:22;29.07;;;12.33;;
1262;SDS011;62267;50.112;8.704;2023-08-20T03:53:49;13.30;;;12.00;;
1262;SDS011;62267;50.112;8.704;2023-08-20T03:56:17;12.80;;;11.70;;
1262;SDS011;62267;50.112;8.704;2023-08-20T03:58:45;14.03;;;12.73;;
1262;SDS011;62267;50.112;8.704;2023-08-20T04:01:12;14.07;;;12.67;;
1262;SDS011;62267;50.112;8.704;2023-08-20T04:03:41;13.37;;;12.20;;
1262;SDS011;62267;50.112;8.704;2023-08-20T04:06:08;15.27;;;13.17;;
1262;SDS011;62267;50.112;8.704;2023-08-20T04:08:36;13.00;;;11.80;;
1262;SDS011;62267;50.112;8.704;2023-08-20T04:11:03;13.57;;;12.17;;
1262;SDS011;62267;50.112;8.704;2023-08-20T04:13:31;13.90;;;12.10;;
1262;SDS011;62267;50.112;8.704;2023-08-20T04:15:59;14.53;;;13.13;;
1262;SDS011;62267;50.112;8.704;2023-08-20T04:18:26;15.33;;;13.73;;
1262;SDS011;62267;50.112;8.704;2023-08-20T04:20:55;14.10;;;12.57;;
1262;SDS011;62267;50.112;8.704;2023-08-20T04:23:24;14.67;;;13.27;;
1262;SDS011;62267;50.112;8.704;2023-08-20T04:25:51;14.07;;;12.50;;
1262;SDS011;62267;50.112;8.704;2023-08-20T04:28:19;12.50;;;11.40;;
1262;SDS011;62267;50.112;8.704;2023-08-20T04:30:46;13.43;;;12.13;;
1262;SDS011;62267;50.112;8.704;2023-08-20T04:33:14;13.07;;;11.87;;
1262;SDS011;62267;50.112;8.704;2023-08-20T04:35:44;13.57;;;12.10;;
1262;SDS011;62267;50.112;8.704;2023-08-20T04:38:12;13.53;;;12.23;;
1262;SDS011;62267;50.112;8.704;2023-08-20T04:40:39;13.50;;;12.10;;
1262;SDS011;62267;50.112;8.704;2023-08-20T04:43:06;13.83;;;12.43;;
1262;SDS011;62267;50.112;8.704;2023-08-20T04:45:34;13.40;;;12.20;;
1262;SDS011;62267;50.112;8.704;2023-08-20T04:48:01;13.07;;;11.97;;
1262;SDS011;62267;50.112;8.704;2023-08-20T04:50:30;12.87;;;11.70;;
1262;SDS011;62267;50.112;8.704;2023-08-20T04:52:57;13.17;;;11.83;;
1262;SDS011;62267;50.112;8.704;2023-08-20T04:55:27;13.23;;;12.13;;
1262;SDS011;62267;50.112;8.704;2023-08-20T04:57:54;13.47;;;12.17;;
1262;SDS011;62267;50.112;8.704;2023-08-20T05:00:23;13.27;;;11.87;;
1262;SDS011;62267;50.112;8.704;2023-08-20T05:03:03;12.43;;;11.13;;
1262;SDS011;62267;50.112;8.704;2023-08-20T05:05:32;12.97;;;11.50;;
1262;SDS011;62267;50.112;8.704;2023-08-20T05:08:00;13.50;;;12.20;;
1262;SDS011;62267;50.112;8.704;2023-08-20T05:10:30;14.97;;;13.57;;
1262;SDS011;62267;50.112;8.704;2023-08-20T05:12:57;13.50;;;12.13;;
1262;SDS011;62267;50.112;8.704;2023-08-20T05:15:24;13.40;;;12.20;;
1262;SDS011;62267;50.112;8.704;2023-08-20T05:17:51;13.73;;;12.23;;
1262;SDS011;62267;50.112;8.704;2023-08-20T05:20:19;11.73;;;10.63;;
1262;SDS011;62267;50.112;8.704;2023-08-20T05:22:46;12.67;;;11.57;;
1262;SDS011;62267;50.112;8.704;2023-08-20T05:25:13;13.33;;;12.20;;
1262;SDS011;62267;50.112;8.704;2023-08-20T05:27:42;13.20;;;12.00;;
1262;SDS011;62267;50.112;8.704;2023-08-20T05:30:09;13.37;;;12.13;;
1262;SDS011;62267;50.112;8.704;2023-08-20T05:32:37;13.77;;;12.33;;
1262;SDS011;62267;50.112;8.704;2023-08-20T05:35:05;14.30;;;13.00;;
1262;SDS011;62267;50.112;8.704;2023-08-20T05:37:32;17.80;;;13.83;;
1262;SDS011;62267;50.112;8.704;2023-08-20T05:40:00;20.17;;;13.17;;
1262;SDS011;62267;50.112;8.704;2023-08-20T05:42:28;14.50;;;13.00;;
1262;SDS011;62267;50.112;8.704;2023-08-20T05:45:03;14.73;;;13.17;;
1262;SDS011;62267;50.112;8.704;2023-08-20T05:47:32;15.93;;;14.27;;
1262;SDS011;62267;50.112;8.704;2023-08-20T05:50:00;15.53;;;13.10;;
1262;SDS011;62267;50.112;8.704;2023-08-20T05:52:27;15.00;;;13.53;;
1262;SDS011;62267;50.112;8.704;2023-08-20T05:54:54;14.73;;;13.30;;
1262;SDS011;62267;50.112;8.704;2023-08-20T05:57:22;13.93;;;12.63;;
1262;SDS011;62267;50.112;8.704;2023-08-20T05:59:50;15.80;;;13.77;;
1262;SDS011;62267;50.112;8.704;2023-08-20T06:02:18;16.50;;;14.87;;
1262;SDS011;62267;50.112;8.704;2023-08-20T06:04:45;14.70;;;13.10;;
1262;SDS011;62267;50.112;8.704;2023-08-20T06:07:12;14.87;;;13.40;;
1262;SDS011;62267;50.112;8.704;2023-08-20T06:09:40;15.27;;;13.80;;
1262;SDS011;62267;50.112;8.704;2023-08-20T06:12:08;15.00;;;13.03;;
1262;SDS011;62267;50.112;8.704;2023-08-20T06:14:35;15.23;;;13.73;;
1262;SDS011;62267;50.112;8.704;2023-08-20T06:17:03;17.83;;;13.90;;
1262;SDS011;62267;50.112;8.704;2023-08-20T06:19:33;14.17;;;12.87;;
1262;SDS011;62267;50.112;8.704;2023-08-20T06:22:02;15.17;;;13.57;;
1262;SDS011;62267;50.112;8.704;2023-08-20T06:24:29;14.93;;;13.47;;
1262;SDS011;62267;50.112;8.704;2023-08-20T06:26:57;15.30;;;13.90;;
1262;SDS011;62267;50.112;8.704;2023-08-20T06:29:24;13.90;;;12.60;;
1262;SDS011;62267;50.112;8.704;2023-08-20T06:31:51;14.27;;;12.97;;
1262;SDS011;62267;50.112;8.704;2023-08-20T06:34:19;13.63;;;12.23;;
1262;SDS011;62267;50.112;8.704;2023-08-20T06:36:47;13.70;;;12.40;;
1262;SDS011;62267;50.112;8.704;2023-08-20T06:39:14;17.20;;;14.00;;
1262;SDS011;62267;50.112;8.704;2023-08-20T06:41:41;16.27;;;12.97;;
1262;SDS011;62267;50.112;8.704;2023-08-20T06:44:18;14.47;;;12.97;;
1262;SDS011;62267;50.112;8.704;2023-08-20T06:46:45;14.90;;;13.30;;
1262;SDS011;62267;50.112;8.704;2023-08-20T06:49:13;14.60;;;13.10;;
1262;SDS011;62267;50.112;8.704;2023-08-20T06:51:40;13.67;;;12.27;;
1262;SDS011;62267;50.112;8.704;2023-08-20T06:54:07;13.50;;;12.27;;
1262;SDS011;62267;50.112;8.704;2023-08-20T06:56:36;14.43;;;12.13;;
1262;SDS011;62267;50.112;8.704;2023-08-20T06:59:03;13.90;;;12.70;;
1262;SDS011;62267;50.112;8.704;2023-08-20T07:01:30;14.40;;;13.00;;
1262;SDS011;62267;50.112;8.704;2023-08-20T07:03:58;13.73;;;12.37;;
1262;SDS011;62267;50.112;8.704;2023-08-20T07:06:28;14.80;;;12.40;;
1262;SDS011;62267;50.112;8.704;2023-08-20T07:08:55;14.33;;;13.03;;
1262;SDS011;62267;50.112;8.704;2023-08-20T07:11:23;14.40;;;13.10;;
1262;SDS011;62267;50.112;8.704;2023-08-20T07:13:50;15.00;;;13.67;;
1262;SDS011;62267;50.112;8.704;2023-08-20T07:16:17;12.50;;;11.30;;
1262;SDS011;62267;50.112;8.704;2023-08-20T07:18:44;13.93;;;12.63;;
1262;SDS011;62267;50.112;8.704;2023-08-20T07:21:12;13.73;;;12.50;;
1262;SDS011;62267;50.112;8.704;2023-08-20T07:23:41;13.90;;;12.60;;
1262;SDS011;62267;50.112;8.704;2023-08-20T07:26:09;14.27;;;12.90;;
1262;SDS011;62267;50.112;8.704;2023-08-20T07:28:40;13.53;;;12.33;;
1262;SDS011;62267;50.112;8.704;2023-08-20T07:31:23;13.57;;;12.17;;
1262;SDS011;62267;50.112;8.704;2023-08-20T07:33:51;14.30;;;13.03;;
1262;SDS011;62267;50.112;8.704;2023-08-20T07:36:19;14.43;;;12.93;;
1262;SDS011;62267;50.112;8.704;2023-08-20T07:38:50;14.97;;;13.47;;
1262;SDS011;62267;50.112;8.704;2023-08-20T07:41:18;14.77;;;12.90;;
1262;SDS011;62267;50.112;8.704;2023-08-20T07:43:46;13.83;;;12.53;;
1262;SDS011;62267;50.112;8.704;2023-08-20T07:46:14;13.43;;;12.23;;
1262;SDS011;62267;50.112;8.704;2023-08-20T07:48:41;13.07;;;11.87;;
1262;SDS011;62267;50.112;8.704;2023-08-20T07:51:09;15.40;;;13.80;;
1262;SDS011;62267;50.112;8.704;2023-08-20T07:53:37;14.77;;;13.27;;
1262;SDS011;62267;50.112;8.704;2023-08-20T07:56:05;13.27;;;12.17;;
1262;SDS011;62267;50.112;8.704;2023-08-20T07:58:32;15.10;;;13.53;;
1262;SDS011;62267;50.112;8.704;2023-08-20T08:01:00;14.77;;;13.40;;
1262;SDS011;62267;50.112;8.704;2023-08-20T08:03:27;17.73;;;15.97;;
1262;SDS011;62267;50.112;8.704;2023-08-20T08:05:55;15.60;;;14.00;;
1262;SDS011;62267;50.112;8.704;2023-08-20T08:08:22;16.50;;;13.57;;
1262;SDS011;62267;50.112;8.704;2023-08-20T08:10:51;16.07;;;14.50;;
1262;SDS011;62267;50.112;8.704;2023-08-20T08:13:19;15.23;;;13.83;;
1262;SDS011;62267;50.112;8.704;2023-08-20T08:15:47;15.80;;;14.20;;
1262;SDS011;62267;50.112;8.704;2023-08-20T08:18:14;14.60;;;13.37;;
1262;SDS011;62267;50.112;8.704;2023-08-20T08:20:41;15.50;;;13.90;;
1262;SDS011;62267;50.112;8.704;2023-08-20T08:23:09;17.13;;;15.40;;
1262;SDS011;62267;50.112;8.704;2023-08-20T08:25:36;16.70;;;14.07;;
1262;SDS011;62267;50.112;8.704;2023-08-20T08:28:04;15.27;;;13.87;;
1262;SDS011;62267;50.112;8.704;2023-08-20T08:30:32;16.23;;;14.73;;
1262;SDS011;62267;50.112;8.704;2023-08-20T08:33:00;14.20;;;12.80;;
1262;SDS011;62267;50.112;8.704;2023-08-20T08:35:27;16.03;;;14.27;;
1262;SDS011;62267;50.112;8.704;2023-08-20T08:37:54;14.07;;;12.77;;
1262;SDS011;62267;50.112;8.704;2023-08-20T08:40:25;15.60;;;14.00;;
1262;SDS011;62267;50.112;8.704;2023-08-20T08:42:56;13.83;;;12.43;;
1262;SDS011;62267;50.112;8.704;2023-08-20T08:45:26;17.20;;;14.20;;
1262;SDS011;62267;50.112;8.704;2023-08-20T08:47:54;15.50;;;14.07;;
1262;SDS011;62267;50.112;8.704;2023-08-20T08:50:23;15.80;;;14.30;;
1262;SDS011;62267;50.112;8.704;2023-08-20T08:52:51;16.07;;;14.30;;
1262;SDS011;62267;50.112;8.704;2023-08-20T08:55:20;17.57;;;14.57;;
1262;SDS011;62267;50.112;8.704;2023-08-20T08:57:47;14.97;;;13.47;;
1262;SDS011;62267;50.112;8.704;2023-08-20T09:00:14;15.80;;;14.20;;
1262;SDS011;62267;50.112;8.704;2023-08-20T09:02:43;19.57;;;17.57;;
1262;SDS011;62267;50.112;8.704;2023-08-20T09:05:12;15.80;;;14.20;;
1262;SDS011;62267;50.112;8.704;2023-08-20T09:07:42;16.97;;;15.40;;
1262;SDS011;62267;50.112;8.704;2023-08-20T09:10:10;17.27;;;15.47;;
1262;SDS011;62267;50.112;8.704;2023-08-20T09:12:37;14.90;;;13.60;;
1262;SDS011;62267;50.112;8.704;2023-08-20T09:15:09;15.97;;;14.30;;
1262;SDS011;62267;50.112;8.704;2023-08-20T09:17:40;17.40;;;15.80;;
1262;SDS011;62267;50.112;8.704;2023-08-20T09:20:07;15.63;;;14.13;;
1262;SDS011;62267;50.112;8.704;2023-08-20T09:22:35;16.60;;;15.00;;
1262;SDS011;62267;50.112;8.704;2023-08-20T09:25:04;16.77;;;15.13;;
1262;SDS011;62267;50.112;8.704;2023-08-20T09:27:40;14.93;;;13.47;;
1262;SDS011;62267;50.112;8.704;2023-08-20T09:30:08;17.53;;;15.63;;
1262;SDS011;62267;50.112;8.704;2023-08-20T09:32:36;19.00;;;17.30;;
1262;SDS011;62267;50.112;8.704;2023-08-20T09:35:06;15.93;;;14.40;;
1262;SDS011;62267;50.112;8.704;2023-08-20T09:37:35;16.30;;;14.70;;
1262;SDS011;62267;50.112;8.704;2023-08-20T09:40:04;14.53;;;13.23;;
1262;SDS011;62267;50.112;8.704;2023-08-20T09:42:32;15.20;;;13.70;;
1262;SDS011;62267;50.112;8.704;2023-08-20T09:45:00;14.23;;;12.90;;
1262;SDS011;62267;50.112;8.704;2023-08-20T09:47:31;14.30;;;12.87;;
1262;SDS011;62267;50.112;8.704;2023-08-20T09:50:03;14.00;;;12.53;;
1262;SDS011;62267;50.112;8.704;2023-08-20T09:52:35;15.73;;;14.30;;
1262;SDS011;62267;50.112;8.704;2023-08-20T09:55:09;14.30;;;13.10;;
1262;SDS011;62267;50.112;8.704;2023-08-20T09:57:38;14.73;;;13.43;;
1262;SDS011;62267;50.112;8.704;2023-08-20T10:00:11;15.70;;;13.93;;
1262;SDS011;62267;50.112;8.704;2023-08-20T10:02:40;16.07;;;14.60;;
1262;SDS011;62267;50.112;8.704;2023-08-20T10:05:09;14.10;;;12.23;;
1262;SDS011;62267;50.112;8.704;2023-08-20T10:07:37;12.77;;;11.57;;
1262;SDS011;62267;50.112;8.704;2023-08-20T10:10:05;13.00;;;11.70;;
1262;SDS011;62267;50.112;8.704;2023-08-20T10:12:34;13.47;;;12.07;;
1262;SDS011;62267;50.112;8.704;2023-08-20T10:15:04;12.90;;;11.80;;
1262;SDS011;62267;50.112;8.704;2023-08-20T10:17:33;15.70;;;11.53;;
1262;SDS011;62267;50.112;8.704;2023-08-20T10:20:02;13.50;;;12.20;;
1262;SDS011;62267;50.112;8.704;2023-08-20T10:22:37;14.23;;;12.97;;
1262;SDS011;62267;50.112;8.704;2023-08-20T10:25:09;13.40;;;12.20;;
1262;SDS011;62267;50.112;8.704;2023-08-20T10:27:37;13.93;;;12.50;;
1262;SDS011;62267;50.112;8.704;2023-08-20T10:30:09;15.10;;;13.53;;
1262;SDS011;62267;50.112;8.704;2023-08-20T10:32:47;14.13;;;12.70;;
1262;SDS011;62267;50.112;8.704;2023-08-20T10:35:15;15.10;;;13.60;;
1262;SDS011;62267;50.112;8.704;2023-08-20T10:46:08;12.60;;;11.40;;
1262;SDS011;62267;50.112;8.704;2023-08-20T10:48:41;11.60;;;10.50;;
1262;SDS011;62267;50.112;8.704;2023-08-20T10:51:15;11.23;;;10.23;;
1262;SDS011;62267;50.112;8.704;2023-08-20T10:56:43;13.47;;;12.17;;
1262;SDS011;62267;50.112;8.704;2023-08-20T10:59:17;12.13;;;10.93;;
1262;SDS011;62267;50.112;8.704;2023-08-20T11:01:49;11.03;;;9.80;;
1262;SDS011;62267;50.112;8.704;2023-08-20T11:04:17;10.53;;;9.53;;
1262;SDS011;62267;50.112;8.704;2023-08-20T11:06:46;11.87;;;10.50;;
1262;SDS011;62267;50.112;8.704;2023-08-20T11:09:13;10.47;;;9.50;;
1262;SDS011;62267;50.112;8.704;2023-08-20T11:11:42;10.17;;;9.27;;
1262;SDS011;62267;50.112;8.704;2023-08-20T11:14:13;10.60;;;9.40;;
1262;SDS011;62267;50.112;8.704;2023-08-20T11:16:41;7.73;;;7.13;;
1262;SDS011;62267;50.112;8.704;2023-08-20T11:19:10;8.60;;;7.80;;
1262;SDS011;62267;50.112;8.704;2023-08-20T11:21:38;8.33;;;7.63;;
1262;SDS011;62267;50.112;8.704;2023-08-20T11:24:06;9.67;;;8.87;;
1262;SDS011;62267;50.112;8.704;2023-08-20T11:26:34;8.30;;;7.60;;
1262;SDS011;62267;50.112;8.704;2023-08-20T11:29:08;8.53;;;7.83;;
1262;SDS011;62267;50.112;8.704;2023-08-20T11:31:38;9.00;;;8.10;;
1262;SDS011;62267;50.112;8.704;2023-08-20T11:34:05;43.63;;;14.10;;
1262;SDS011;62267;50.112;8.704;2023-08-20T11:36:34;10.80;;;9.90;;
1262;SDS011;62267;50.112;8.704;2023-08-20T11:39:05;10.17;;;9.37;;
1262;SDS011;62267;50.112;8.704;2023-08-20T11:41:37;14.63;;;11.07;;
1262;SDS011;62267;50.112;8.704;2023-08-20T11:44:05;10.20;;;8.80;;
1262;SDS011;62267;50.112;8.704;2023-08-20T11:46:32;9.37;;;8.67;;
1262;SDS011;62267;50.112;8.704;2023-08-20T11:49:07;12.77;;;11.53;;
1262;SDS011;62267;50.112;8.704;2023-08-20T11:51:35;9.80;;;8.93;;
1262;SDS011;62267;50.112;8.704;2023-08-20T11:54:16;10.73;;;9.23;;
1262;SDS011;62267;50.112;8.704;2023-08-20T11:56:44;7.67;;;7.07;;
1262;SDS011;62267;50.112;8.704;2023-08-20T11:59:13;8.87;;;8.00;;
1262;SDS011;62267;50.112;8.704;2023-08-20T12:01:42;8.90;;;8.10;;
1262;SDS011;62267;50.112;8.704;2023-08-20T12:04:10;8.50;;;7.80;;
1262;SDS011;62267;50.112;8.704;2023-08-20T12:06:38;8.10;;;7.40;;
1262;SDS011;62267;50.112;8.704;2023-08-20T12:09:22;12.57;;;9.37;;
1262;SDS011;62267;50.112;8.704;2023-08-20T12:11:50;9.27;;;8.40;;
1262;SDS011;62267;50.112;8.704;2023-08-20T12:14:20;8.70;;;7.80;;
1262;SDS011;62267;50.112;8.704;2023-08-20T12:16:49;8.20;;;7.50;;
1262;SDS011;62267;50.112;8.704;2023-08-20T12:19:19;8.83;;;8.03;;
1262;SDS011;62267;50.112;8.704;2023-08-20T12:21:46;9.03;;;8.03;;
1262;SDS011;62267;50.112;8.704;2023-08-20T12:24:15;8.20;;;7.40;;
1262;SDS011;62267;50.112;8.704;2023-08-20T12:26:45;8.53;;;7.60;;
1262;SDS011;62267;50.112;8.704;2023-08-20T12:29:12;8.70;;;8.00;;
1262;SDS011;62267;50.112;8.704;2023-08-20T12:31:40;7.93;;;7.23;;
1262;SDS011;62267;50.112;8.704;2023-08-20T12:34:08;9.97;;;7.90;;
1262;SDS011;62267;50.112;8.704;2023-08-20T12:36:36;8.60;;;7.80;;
1262;SDS011;62267;50.112;8.704;2023-08-20T12:39:03;8.37;;;7.57;;
1262;SDS011;62267;50.112;8.704;2023-08-20T12:41:31;8.83;;;8.10;;
1262;SDS011;62267;50.112;8.704;2023-08-20T12:44:02;9.20;;;8.33;;
1262;SDS011;62267;50.112;8.704;2023-08-20T12:46:30;9.97;;;8.90;;
1262;SDS011;62267;50.112;8.704;2023-08-20T12:49:00;9.60;;;8.80;;
1262;SDS011;62267;50.112;8.704;2023-08-20T12:51:28;9.00;;;8.30;;
1262;SDS011;62267;50.112;8.704;2023-08-20T12:53:57;7.83;;;7.10;;
1262;SDS011;62267;50.112;8.704;2023-08-20T12:56:25;8.57;;;7.77;;
1262;SDS011;62267;50.112;8.704;2023-08-20T12:58:53;7.77;;;7.17;;
1262;SDS011;62267;50.112;8.704;2023-08-20T13:01:21;7.60;;;6.90;;
1262;SDS011;62267;50.112;8.704;2023-08-20T13:03:49;7.43;;;6.83;;
1262;SDS011;62267;50.112;8.704;2023-08-20T13:06:16;7.80;;;7.00;;
1262;SDS011;62267;50.112;8.704;2023-08-20T13:08:46;6.53;;;5.93;;
1262;SDS011;62267;50.112;8.704;2023-08-20T13:11:14;9.60;;;7.43;;
1262;SDS011;62267;50.112;8.704;2023-08-20T13:13:43;7.40;;;6.53;;
1262;SDS011;62267;50.112;8.704;2023-08-20T13:16:11;6.70;;;6.00;;
1262;SDS011;62267;50.112;8.704;2023-08-20T13:18:39;6.70;;;5.93;;
1262;SDS011;62267;50.112;8.704;2023-08-20T13:21:06;6.57;;;6.07;;
1262;SDS011;62267;50.112;8.704;2023-08-20T13:23:34;6.00;;;5.40;;
1262;SDS011;62267;50.112;8.704;2023-08-20T13:26:02;7.07;;;6.37;;
1262;SDS011;62267;50.112;8.704;2023-08-20T13:28:29;8.17;;;6.00;;
1262;SDS011;62267;50.112;8.704;2023-08-20T13:30:57;8.47;;;7.20;;
1262;SDS011;62267;50.112;8.704;2023-08-20T13:33:26;8.67;;;7.90;;
1262;SDS011;62267;50.112;8.704;2023-08-20T13:35:54;6.17;;;5.60;;
1262;SDS011;62267;50.112;8.704;2023-08-20T13:38:24;6.77;;;6.30;;
1262;SDS011;62267;50.112;8.704;2023-08-20T13:40:53;8.50;;;7.80;;
1262;SDS011;62267;50.112;8.704;2023-08-20T13:43:22;7.90;;;7.17;;
1262;SDS011;62267;50.112;8.704;2023-08-20T13:45:49;6.80;;;6.20;;
1262;SDS011;62267;50.112;8.704;2023-08-20T13:48:17;7.10;;;6.50;;
1262;SDS011;62267;50.112;8.704;2023-08-20T13:50:44;7.23;;;6.63;;
1262;SDS011;62267;50.112;8.704;2023-08-20T13:53:11;7.43;;;6.40;;
1262;SDS011;62267;50.112;8.704;2023-08-20T13:55:38;6.73;;;6.23;;
1262;SDS011;62267;50.112;8.704;2023-08-20T13:58:06;6.87;;;6.27;;
1262;SDS011;62267;50.112;8.704;2023-08-20T14:00:36;7.03;;;6.37;;
1262;SDS011;62267;50.112;8.704;2023-08-20T14:03:03;7.57;;;6.93;;
1262;SDS011;62267;50.112;8.704;2023-08-20T14:05:31;7.50;;;6.80;;
1262;SDS011;62267;50.112;8.704;2023-08-20T14:08:03;6.97;;;6.37;;
1262;SDS011;62267;50.112;8.704;2023-08-20T14:10:31;6.60;;;6.10;;
1262;SDS011;62267;50.112;8.704;2023-08-20T14:12:58;7.50;;;6.80;;
1262;SDS011;62267;50.112;8.704;2023-08-20T14:15:25;7.77;;;7.07;;
1262;SDS011;62267;50.112;8.704;2023-08-20T14:17:52;7.97;;;7.17;;
1262;SDS011;62267;50.112;8.704;2023-08-20T14:20:20;8.40;;;7.60;;
1262;SDS011;62267;50.112;8.704;2023-08-20T14:22:49;8.30;;;7.60;;
1262;SDS011;62267;50.112;8.704;2023-08-20T14:25:18;8.23;;;7.57;;
1262;SDS011;62267;50.112;8.704;2023-08-20T14:27:46;8.20;;;7.50;;
1262;SDS011;62267;50.112;8.704;2023-08-20T14:30:13;8.52;;;7.82;;
1262;SDS011;62267;50.112;8.704;2023-08-20T14:32:40;7.63;;;6.93;;
1262;SDS011;62267;50.112;8.704;2023-08-20T14:35:08;7.53;;;6.93;;
1262;SDS011;62267;50.112;8.704;2023-08-20T14:37:37;7.80;;;7.20;;
1262;SDS011;62267;50.112;8.704;2023-08-20T14:40:04;9.30;;;7.10;;
1262;SDS011;62267;50.112;8.704;2023-08-20T14:42:33;7.43;;;6.83;;
1262;SDS011;62267;50.112;8.704;2023-08-20T14:45:01;7.23;;;6.70;;
1262;SDS011;62267;50.112;8.704;2023-08-20T14:47:30;7.85;;;7.20;;
1262;SDS011;62267;50.112;8.704;2023-08-20T14:49:59;7.60;;;7.00;;
1262;SDS011;62267;50.112;8.704;2023-08-20T14:52:26;7.35;;;6.68;;
1262;SDS011;62267;50.112;8.704;2023-08-20T14:54:54;8.60;;;7.85;;
1262;SDS011;62267;50.112;8.704;2023-08-20T14:57:21;7.10;;;6.50;;
1262;SDS011;62267;50.112;8.704;2023-08-20T14:59:50;7.63;;;6.65;;
1262;SDS011;62267;50.112;8.704;2023-08-20T15:02:17;7.43;;;6.77;;
1262;SDS011;62267;50.112;8.704;2023-08-20T15:04:45;8.40;;;7.22;;